Airfield :
LOGIN :

Register | Disclaimer

   EN    FR    IT 

 










Legend :    VFR   Marginal VFR   IFR   Intensive IFR   Very Intensive IFR
Visi :
Ceiling :
>= 8 km
>= 3000ft
5 to 8 km
1000 to 3000 ft
1500m to 5 km
500 to 1000 ft
800 to 1500m
200 to 500 ft
< 800m
< 200 ft
Symbols :   Thunderstorms  Fog  Heavy snow  Heavy precipitations  Wind > 20 kt
SIGMETs :     Misc.  Thunderstorms  Icing  Turbulence  Mountain Waves  Volcanic Ashes






- Airport Elevation : 885 ft
- IATA code : BAS


LFSB - Bale-Mulhouse

CURRENT METAR :
  • 280600Z 31003KT 290V350 9999 FEW033 BKN046 BKN066 13/11 Q1021 NOSIG

EXPIRED METARs :
  • 280530Z 33004KT 300V360 9999 FEW033 SCT053 BKN066 12/11 Q1021 NOSIG
  • 280500Z AUTO 34003KT 9999 FEW038 BKN054 OVC064 11/11 Q1021 NOSIG
  • 280430Z AUTO VRB01KT 9999 FEW050 BKN064 10/09 Q1021 NOSIG
  • 280400Z AUTO 00000KT CAVOK 09/08 Q1021 TEMPO BKN014 BECMG 34010KT
  • 280330Z AUTO 00000KT 9000 0700 R15/1000U R33/P2000 BCFG NSC 09/08 Q1021 TEMPO BKN014 BECMG 34010KT

TAF TAF LFSB
Valid from the 28 at 06:00 until the 29 at 06:00 UTC


280500Z 2806/2906 VRB02KT 9999 SCT035 BKN050
BECMG 2806/2809 34010KT CAVOK
Met : +33 3 89 90 31 11



MET'MAP, your aeronautical weather chart ! - Copyright ORBIFLY December 2007 - Disclaimer

ORBIFLY MET'MAP TEAM :

Programming & Development : Alexandra Zaïnal
Original concept : Baudouin d'Aumeries
Technical & hardware support : Manuel Goepfert
Assistance : Marc-Olivier Méhu

Contact : metmap@orbifly.com




SOURCES & CREDITS :

   NOAA